West St. Catharines

*Note: All times are displayed in the local standard time of the station location.
**Rain - Equipment is designed to accurately record liquid precipitation; under conditions when precipitation is not in liquid form, the data displayed may not properly reflect rainfall values.

Date Max Temp
(°C)
Min Temp
(°C)
Avg Temp
(°C)
Rain (mm) Avg RH (%) Solar Rad (kJ/m2)
Sun, Dec 10, 2017 -1.1 -2.7 -1.9 0.0 88.5 1512.2
Sat, Dec 09, 2017 2.1 -3.0 -0.4 0.0 79.6 3911.1
Fri, Dec 08, 2017 0.2 -4.5 -1.7 0.0 79.9 980.2
Thu, Dec 07, 2017 1.3 -3.5 -0.6 0.0 78.7 4071.8
Wed, Dec 06, 2017 4.1 -0.7 1.6 0.0 70.4 5260.6
Tue, Dec 05, 2017 11.5 0.9 7.7 10.0 87.3 1156.7
Mon, Dec 04, 2017 11.9 -2.0 5.7 0.4 83.5 3481.5
DateTime Avg Temp (°C) Rain (mm) RH (%) Solar Rad (kJ/m2)
Mon, Dec 11, 2017 02:00 -2.4 0.0 100.0 0.8
Mon, Dec 11, 2017 01:00 -1.7 0.0 91.3 1.2
Mon, Dec 11, 2017 00:00 -2.1 0.0 91.3 0.8
Sun, Dec 10, 2017 23:00 -2.2 0.0 90.5 0.4
Sun, Dec 10, 2017 22:00 -2.1 0.0 89.0 0.4
Sun, Dec 10, 2017 21:00 -1.9 0.0 87.0 0.4
Sun, Dec 10, 2017 20:00 -1.8 0.0 84.3 0.4
Sun, Dec 10, 2017 19:00 -1.7 0.0 80.8 0.4
Sun, Dec 10, 2017 18:00 -1.3 0.0 76.5 0.0
Sun, Dec 10, 2017 17:00 -1.4 0.0 80.3 13.6
Sun, Dec 10, 2017 16:00 -1.3 0.0 84.5 77.6
Sun, Dec 10, 2017 15:00 -1.2 0.0 85.3 144.2
Sun, Dec 10, 2017 14:00 -1.3 0.0 85.0 175.9
Sun, Dec 10, 2017 13:00 -1.3 0.0 83.8 240.2
Sun, Dec 10, 2017 12:00 -1.4 0.0 81.5 334.3
Sun, Dec 10, 2017 11:00 -1.8 0.0 79.0 268.6
Sun, Dec 10, 2017 10:00 -2.2 0.0 81.5 168.3
Sun, Dec 10, 2017 09:00 -2.5 0.0 84.0 78.6
Sun, Dec 10, 2017 08:00 -2.6 0.0 85.8 5.7
Sun, Dec 10, 2017 07:00 -2.6 0.0 96.3 0.4
Sun, Dec 10, 2017 06:00 -2.5 0.0 98.0 0.4
Sun, Dec 10, 2017 05:00 -2.1 0.0 100.0 0.4
Sun, Dec 10, 2017 04:00 -2.1 0.0 100.0 0.4
Sun, Dec 10, 2017 03:00 -2.1 0.0 100.0 0.0
Sun, Dec 10, 2017 02:00 -2.2 0.0 100.0 0.4
Sun, Dec 10, 2017 01:00 -2.0 0.0 100.0 0.4
Sun, Dec 10, 2017 00:00 -2.3 0.0 100.0 0.4
Sat, Dec 09, 2017 23:00 -2.8 0.0 100.0 0.8
Sat, Dec 09, 2017 22:00 -2.6 0.0 100.0 0.8
Sat, Dec 09, 2017 21:00 -1.5 0.0 94.5 0.8
Sat, Dec 09, 2017 20:00 -0.5 0.0 82.8 0.8
Sat, Dec 09, 2017 19:00 -0.3 0.0 77.3 0.8
Sat, Dec 09, 2017 18:00 -0.6 0.0 80.8 0.0
Sat, Dec 09, 2017 17:00 0.4 0.0 74.5 32.5
Sat, Dec 09, 2017 16:00 1.0 0.0 68.5 239.2
Sat, Dec 09, 2017 15:00 1.1 0.0 68.3 358.7
Sat, Dec 09, 2017 14:00 0.9 0.0 68.3 512.2
Sat, Dec 09, 2017 13:00 0.6 0.0 70.0 432.8
Sat, Dec 09, 2017 12:00 1.5 0.0 65.8 683.8
Sat, Dec 09, 2017 11:00 1.5 0.0 66.0 750.1
Sat, Dec 09, 2017 10:00 0.6 0.0 76.0 685.3
Sat, Dec 09, 2017 09:00 -1.3 0.0 87.0 198.6
Sat, Dec 09, 2017 08:00 -0.9 0.0 87.8 9.9
Sat, Dec 09, 2017 07:00 -0.3 0.0 88.0 0.8
Sat, Dec 09, 2017 06:00 0.0 0.0 86.8 0.0
Sat, Dec 09, 2017 05:00 -0.5 0.0 77.3 0.4
Sat, Dec 09, 2017 04:00 -0.7 0.0 72.0 0.8
Sat, Dec 09, 2017 03:00 -0.9 0.0 71.5 0.0


asterix Register now to access more data! asterix